Time;durP1;ratioP1;P1;durP2;ratioP2;P2;SDS_P1;SDS_P2;PMS_P1;PMS_P2;Temp;Humidity;BMP_temperature;BMP_pressure;BME280_temperature;BME280_humidity;BME280_pressure;Samples;Min_cycle;Max_cycle;Signal;HPM_P1;HPM_P2
2024/01/11 00:04:03;;;;;;;15.63;7.85;;;;;;;-6.35;57.06;101299.69;10566310;28;20844;-62
2024/01/11 00:09:05;;;;;;;22.95;7.30;;;;;;;-6.39;56.98;101300.44;10558738;28;20051;-62
2024/01/11 00:14:07;;;;;;;18.70;7.68;;;;;;;-6.41;56.98;101304.63;10540413;28;20058;-62
2024/01/11 00:19:09;;;;;;;17.38;6.82;;;;;;;-6.41;57.08;101309.69;10558830;28;20100;-61
2024/01/11 00:24:11;;;;;;;15.07;8.05;;;;;;;-6.41;57.00;101308.84;10541625;28;20496;-62
2024/01/11 00:29:13;;;;;;;18.27;7.57;;;;;;;-6.45;57.08;101307.00;10566793;27;20055;-62
2024/01/11 00:34:15;;;;;;;17.10;7.25;;;;;;;-6.47;57.19;101311.19;10549006;27;20492;-61
2024/01/11 00:39:17;;;;;;;21.30;8.48;;;;;;;-6.52;57.18;101313.59;10519889;27;20503;-62
2024/01/11 00:44:19;;;;;;;15.15;6.93;;;;;;;-6.52;57.22;101311.03;10565761;27;20407;-62
2024/01/11 00:49:21;;;;;;;18.55;6.22;;;;;;;-6.54;57.16;101314.38;10568049;27;20115;-62
2024/01/11 00:54:24;;;;;;;12.88;6.68;;;;;;;-6.61;57.01;101310.78;10565334;27;20458;-63
2024/01/11 00:59:26;;;;;;;14.65;6.15;;;;;;;-6.66;57.34;101314.84;10565497;27;20040;-63
2024/01/11 01:04:28;;;;;;;13.75;6.80;;;;;;;-6.67;57.26;101314.81;10569251;27;20043;-63
2024/01/11 01:09:30;;;;;;;13.32;6.38;;;;;;;-6.65;57.36;101323.34;10569298;27;20047;-63
2024/01/11 01:14:32;;;;;;;12.35;5.35;;;;;;;-6.67;57.40;101322.44;10564529;27;20054;-64
2024/01/11 01:19:34;;;;;;;16.90;7.82;;;;;;;-6.64;57.15;101325.09;10579705;27;20484;-63
2024/01/11 01:24:36;;;;;;;16.08;6.13;;;;;;;-6.65;57.14;101320.81;10563750;27;20050;-63
2024/01/11 01:29:38;;;;;;;18.08;7.53;;;;;;;-6.72;57.29;101321.41;10567827;27;20052;-63
2024/01/11 01:34:41;;;;;;;22.92;7.60;;;;;;;-6.81;57.29;101332.19;10547528;27;20120;-63
2024/01/11 01:39:44;;;;;;;15.60;7.47;;;;;;;-6.81;57.49;101324.56;10565657;27;20118;-63
2024/01/11 01:44:46;;;;;;;13.95;6.55;;;;;;;-6.86;57.50;101335.38;10563943;27;20046;-63
2024/01/11 01:49:49;;;;;;;14.70;6.03;;;;;;;-6.85;57.47;101329.47;10564384;27;20051;-63
2024/01/11 01:54:51;;;;;;;14.55;6.95;;;;;;;-6.82;57.71;101338.06;10545530;27;20575;-63
2024/01/11 01:59:53;;;;;;;18.33;6.80;;;;;;;-6.85;57.54;101342.19;10564255;27;20044;-63
2024/01/11 02:04:56;;;;;;;15.95;6.82;;;;;;;-6.88;57.55;101349.72;10563389;27;20156;-64
2024/01/11 02:09:58;;;;;;;20.10;6.38;;;;;;;-6.91;57.57;101347.09;10561978;27;20050;-63
2024/01/11 02:15:03;;;;;;;15.43;6.35;;;;;;;-6.90;57.51;101338.63;10563066;27;20125;-63
2024/01/11 02:20:07;;;;;;;15.85;7.28;;;;;;;-6.91;57.56;101344.53;10561989;27;20079;-63
2024/01/11 02:25:09;;;;;;;12.27;6.63;;;;;;;-6.95;57.49;101333.41;10569656;27;20515;-63
2024/01/11 02:30:11;;;;;;;17.92;5.53;;;;;;;-6.99;57.40;101343.44;10569534;27;20483;-63
2024/01/11 02:35:15;;;;;;;16.20;6.85;;;;;;;-7.01;57.62;101342.53;10565833;27;20549;-63
2024/01/11 02:40:18;;;;;;;18.77;6.55;;;;;;;-7.06;57.81;101344.91;10565223;27;20067;-63
2024/01/11 02:45:20;;;;;;;12.05;5.85;;;;;;;-7.05;57.55;101342.41;10549072;27;20055;-63
2024/01/11 02:50:22;;;;;;;13.82;6.22;;;;;;;-7.05;57.51;101347.50;10560388;27;20044;-63
2024/01/11 02:55:24;;;;;;;14.95;6.60;;;;;;;-7.05;57.70;101347.50;10560777;27;20075;-63
2024/01/11 03:00:26;;;;;;;21.00;7.85;;;;;;;-7.06;57.70;101349.97;10559711;27;20044;-62
2024/01/11 03:05:28;;;;;;;16.05;5.78;;;;;;;-7.09;57.38;101338.03;10531777;27;20811;-63
2024/01/11 03:10:30;;;;;;;16.40;6.40;;;;;;;-7.14;57.66;101338.69;10561382;27;20080;-63
2024/01/11 03:15:32;;;;;;;16.67;6.53;;;;;;;-7.17;57.64;101333.50;10559833;28;20506;-63
2024/01/11 03:20:34;;;;;;;15.98;5.93;;;;;;;-7.25;57.45;101330.72;10559730;27;20039;-63
2024/01/11 03:25:36;;;;;;;13.52;6.13;;;;;;;-7.24;57.67;101329.03;10563758;27;20495;-63
2024/01/11 03:30:38;;;;;;;17.42;6.13;;;;;;;-7.25;57.63;101329.84;10559483;28;20052;-63
2024/01/11 03:35:43;;;;;;;17.17;6.80;;;;;;;-7.24;57.64;101319.75;10565021;27;20574;-63
2024/01/11 03:40:45;;;;;;;14.88;6.78;;;;;;;-7.27;57.66;101308.59;10559631;28;20047;-63
2024/01/11 03:45:47;;;;;;;12.73;6.45;;;;;;;-7.31;57.57;101311.84;10562104;28;20044;-63
2024/01/11 03:50:49;;;;;;;17.58;7.25;;;;;;;-7.35;57.69;101315.97;10559232;28;20131;-63
2024/01/11 03:55:51;;;;;;;15.68;6.20;;;;;;;-7.31;57.57;101316.91;10560283;28;21239;-62
2024/01/11 04:00:54;;;;;;;16.90;6.22;;;;;;;-7.32;57.57;101316.09;10543680;27;20043;-63
2024/01/11 04:05:56;;;;;;;13.65;5.82;;;;;;;-7.35;57.43;101321.03;10569183;27;20063;-62
2024/01/11 04:11:02;;;;;;;13.95;6.22;;;;;;;-7.51;57.88;101328.06;10548678;27;20137;-63
2024/01/11 04:16:06;;;;;;;16.45;7.32;;;;;;;-7.50;57.92;101318.00;10568608;27;20491;-63
2024/01/11 04:21:19;;;;;;;15.95;6.45;;;;;;;-7.38;57.90;101320.97;10567988;27;20051;-63
2024/01/11 04:26:21;;;;;;;14.75;5.70;;;;;;;-7.45;57.77;101328.28;10566671;27;20079;-63
2024/01/11 04:31:23;;;;;;;13.95;6.18;;;;;;;-7.44;57.79;101324.94;10573804;27;20503;-63
2024/01/11 04:36:25;;;;;;;17.65;6.53;;;;;;;-7.53;57.68;101330.56;10568586;27;20283;-63
2024/01/11 04:41:27;;;;;;;18.48;6.72;;;;;;;-7.58;57.83;101336.31;10548135;27;20410;-63
2024/01/11 04:46:29;;;;;;;18.77;6.38;;;;;;;-7.55;57.60;101346.56;10572048;27;20043;-63
2024/01/11 04:51:31;;;;;;;15.65;8.35;;;;;;;-7.63;57.66;101353.06;10565861;27;20047;-63
2024/01/11 04:56:33;;;;;;;16.27;7.18;;;;;;;-7.63;57.61;101346.31;10566531;27;20424;-63
2024/01/11 05:01:35;;;;;;;17.08;7.10;;;;;;;-7.61;57.65;101347.22;10571800;27;20043;-64
2024/01/11 05:06:37;;;;;;;18.83;7.28;;;;;;;-7.60;57.58;101353.19;10571808;27;20067;-63
2024/01/11 05:11:39;;;;;;;13.00;5.93;;;;;;;-7.57;57.58;101353.28;10569870;27;20524;-63
2024/01/11 05:16:41;;;;;;;16.02;7.43;;;;;;;-7.56;57.58;101349.94;10570663;27;20130;-64
2024/01/11 05:21:43;;;;;;;16.80;6.10;;;;;;;-7.61;57.55;101351.44;10569506;27;20046;-62
2024/01/11 05:26:45;;;;;;;11.52;5.70;;;;;;;-7.66;57.55;101358.88;10564799;27;20672;-61
2024/01/11 05:31:47;;;;;;;11.13;5.25;;;;;;;-7.67;57.73;101357.16;10533602;27;20053;-61
2024/01/11 05:36:50;;;;;;;13.25;5.85;;;;;;;-7.64;57.79;101364.88;10546821;27;20050;-61
2024/01/11 05:41:52;;;;;;;15.75;6.72;;;;;;;-7.62;57.69;101360.72;10564263;27;20321;-62
2024/01/11 05:46:54;;;;;;;13.15;6.03;;;;;;;-7.62;57.57;101364.97;10545013;27;20509;-61
2024/01/11 05:51:56;;;;;;;18.23;7.78;;;;;;;-7.66;57.48;101376.66;10566556;27;20486;-62
2024/01/11 05:56:59;;;;;;;15.95;7.20;;;;;;;-7.70;57.51;101384.13;10563821;27;20044;-62
2024/01/11 06:02:01;;;;;;;14.55;7.03;;;;;;;-7.76;57.63;101404.22;10565738;27;20058;-62
2024/01/11 06:07:03;;;;;;;16.77;6.05;;;;;;;-7.78;57.49;101408.38;10566131;27;20104;-62
2024/01/11 06:12:06;;;;;;;14.77;6.15;;;;;;;-7.81;57.56;101413.34;10565635;27;20039;-62
2024/01/11 06:17:10;;;;;;;15.93;6.85;;;;;;;-7.82;57.57;101430.25;10565676;27;20373;-63
2024/01/11 06:22:12;;;;;;;13.65;5.80;;;;;;;-7.87;57.45;101434.31;10525978;27;20291;-62
2024/01/11 06:27:14;;;;;;;14.32;7.32;;;;;;;-7.88;57.47;101430.03;10561890;27;20418;-63
2024/01/11 06:32:16;;;;;;;16.42;6.60;;;;;;;-7.89;57.58;101430.88;10565643;27;20070;-64
2024/01/11 06:37:18;;;;;;;16.35;6.88;;;;;;;-7.90;57.61;101444.34;10561969;27;20142;-62
2024/01/11 06:42:20;;;;;;;13.15;6.05;;;;;;;-7.90;57.49;101440.97;10561543;27;20248;-62
2024/01/11 06:47:22;;;;;;;15.20;6.65;;;;;;;-7.94;57.50;101445.03;10563700;27;20207;-63
2024/01/11 06:52:25;;;;;;;18.05;5.88;;;;;;;-7.94;57.70;101451.00;10565076;27;20059;-61
2024/01/11 06:57:27;;;;;;;11.75;6.00;;;;;;;-7.97;57.55;101457.63;10561162;27;20051;-63
2024/01/11 07:02:29;;;;;;;13.15;7.20;;;;;;;-8.03;57.58;101459.94;10545706;27;20551;-63
2024/01/11 07:07:31;;;;;;;14.43;6.72;;;;;;;-8.04;57.63;101456.53;10567077;27;20146;-62
2024/01/11 07:12:33;;;;;;;20.90;8.23;;;;;;;-8.08;57.49;101457.22;10560765;27;20043;-61
2024/01/11 07:17:35;;;;;;;14.13;6.28;;;;;;;-8.08;57.66;101458.88;10560670;27;20132;-63
2024/01/11 07:22:37;;;;;;;16.48;6.57;;;;;;;-8.07;57.48;101465.69;10541764;28;20067;-62
2024/01/11 07:27:43;;;;;;;19.17;6.40;;;;;;;-8.08;57.39;101458.88;10566365;27;20050;-61
2024/01/11 07:32:45;;;;;;;14.10;6.90;;;;;;;-8.09;57.42;101454.63;10547523;28;20130;-63
2024/01/11 07:37:47;;;;;;;18.05;8.52;;;;;;;-8.14;57.39;101453.56;10560460;28;20047;-64
2024/01/11 07:42:49;;;;;;;17.48;6.57;;;;;;;-8.08;57.43;101443.66;10556621;27;20062;-62
2024/01/11 07:47:51;;;;;;;16.35;6.75;;;;;;;-8.05;57.15;101439.53;10541770;28;20039;-62
2024/01/11 07:52:53;;;;;;;13.52;6.57;;;;;;;-8.05;57.33;101433.63;10567814;28;20384;-62
2024/01/11 07:57:55;;;;;;;24.58;8.60;;;;;;;-8.02;57.29;101442.22;10541336;28;20124;-61
2024/01/11 08:02:57;;;;;;;13.30;6.30;;;;;;;-7.99;57.14;101461.78;10564582;28;20071;-62
2024/01/11 08:08:01;;;;;;;13.40;6.70;;;;;;;-7.97;57.58;101463.59;10564137;28;20081;-61
2024/01/11 08:13:04;;;;;;;15.20;6.72;;;;;;;-7.82;57.58;101460.72;10562672;28;20400;-62
2024/01/11 08:18:06;;;;;;;16.40;6.93;;;;;;;-7.79;57.81;101460.84;10559405;28;20051;-63
2024/01/11 08:23:08;;;;;;;16.02;6.18;;;;;;;-7.71;57.58;101482.31;10562471;27;20142;-63
2024/01/11 08:28:10;;;;;;;16.05;7.40;;;;;;;-7.53;57.69;101485.53;10559789;28;20047;-63
2024/01/11 08:33:13;;;;;;;14.68;6.75;;;;;;;-7.28;57.63;101478.03;10540601;27;20089;-63
2024/01/11 08:38:16;;;;;;;14.23;6.57;;;;;;;-6.98;57.53;101490.94;10557339;27;20129;-63
2024/01/11 08:43:18;;;;;;;14.85;7.90;;;;;;;-6.79;57.10;101489.91;10555491;27;20039;-64
2024/01/11 08:48:20;;;;;;;15.30;6.03;;;;;;;-6.82;56.93;101494.88;10543506;27;20551;-64
2024/01/11 08:53:23;;;;;;;19.45;6.43;;;;;;;-6.76;57.05;101482.38;10546929;27;20039;-64
2024/01/11 08:58:25;;;;;;;12.50;6.57;;;;;;;-6.76;57.22;101483.25;10544344;27;20071;-64
2024/01/11 09:03:27;;;;;;;16.00;7.45;;;;;;;-6.62;56.98;101483.75;10550927;27;20126;-70
2024/01/11 09:08:29;;;;;;;18.00;8.10;;;;;;;-6.53;56.74;101484.91;10546636;28;20043;-69
2024/01/11 09:13:32;;;;;;;20.02;7.57;;;;;;;-6.37;56.84;101483.72;10563552;27;20048;-70
2024/01/11 09:18:33;;;;;;;21.77;8.75;;;;;;;-6.26;56.85;101477.31;10562746;27;20040;-70
2024/01/11 09:23:36;;;;;;;20.65;8.68;;;;;;;-6.15;56.60;101473.41;10543678;27;20067;-69
2024/01/11 09:28:38;;;;;;;15.57;7.22;;;;;;;-5.97;56.80;101479.09;10562304;27;20043;-70
2024/01/11 09:33:40;;;;;;;19.95;6.60;;;;;;;-5.82;57.00;101483.78;10561840;27;20305;-69
2024/01/11 09:38:45;;;;;;;18.42;6.70;;;;;;;-5.62;56.98;101483.59;10544306;27;20049;-69
2024/01/11 09:43:54;;;;;;;13.32;6.20;;;;;;;-5.50;57.04;101493.25;10569066;27;20130;-69
2024/01/11 09:48:57;;;;;;;20.85;7.93;;;;;;;-5.37;57.05;101486.03;10567347;27;20127;-68
2024/01/11 09:54:00;;;;;;;11.50;5.97;;;;;;;-5.04;56.81;101493.78;10560840;27;20051;-69
2024/01/11 09:59:06;;;;;;;15.18;6.32;;;;;;;-4.86;56.63;101480.66;10567778;27;20043;-69
2024/01/11 10:04:08;;;;;;;15.98;6.05;;;;;;;-4.86;56.82;101496.84;10546560;27;20047;-69
2024/01/11 10:09:10;;;;;;;13.35;7.18;;;;;;;-4.71;56.91;101492.13;10560523;27;20503;-69
2024/01/11 10:14:12;;;;;;;18.65;6.75;;;;;;;-4.52;56.75;101481.59;10575609;27;20044;-69
2024/01/11 10:19:16;;;;;;;19.10;7.30;;;;;;;-4.39;56.42;101457.22;10570651;27;20047;-70
2024/01/11 10:24:25;;;;;;;13.85;6.43;;;;;;;-4.34;56.52;101458.19;10543635;27;20043;-69
2024/01/11 10:29:30;;;;;;;15.40;6.25;;;;;;;-4.21;56.57;101455.13;10542982;27;20051;-68
2024/01/11 10:34:33;;;;;;;13.70;7.10;;;;;;;-4.05;56.39;101458.88;10570483;27;20044;-69
2024/01/11 10:39:36;;;;;;;18.58;6.75;;;;;;;-3.85;56.13;101452.53;10561324;27;20055;-68
2024/01/11 10:44:44;;;;;;;17.17;6.95;;;;;;;-3.60;55.89;101441.16;10562513;27;20131;-68
2024/01/11 10:49:51;;;;;;;14.95;6.13;;;;;;;-3.52;55.54;101442.19;10545550;27;20307;-68
2024/01/11 10:54:56;;;;;;;13.13;6.75;;;;;;;-3.31;55.42;101443.50;10561060;27;20038;-67
2024/01/11 11:00:02;;;;;;;13.48;6.63;;;;;;;-3.25;54.79;101440.19;10563027;27;20051;-67
2024/01/11 11:05:09;;;;;;;13.68;6.32;;;;;;;-3.06;54.38;101432.06;10542706;27;20060;-67
2024/01/11 11:10:13;;;;;;;16.90;7.10;;;;;;;-2.87;54.29;101432.41;10541712;28;20043;-67
2024/01/11 11:15:15;;;;;;;15.93;5.28;;;;;;;-2.68;53.75;101425.94;10542641;28;20128;-68
2024/01/11 11:20:17;;;;;;;12.75;5.75;;;;;;;-2.53;53.53;101428.75;10560138;27;20050;-66
2024/01/11 11:25:25;;;;;;;13.30;5.75;;;;;;;-2.40;53.66;101410.19;10560726;27;20040;-65
2024/01/11 11:30:28;;;;;;;14.70;5.85;;;;;;;-2.31;53.43;101399.22;10560715;28;20158;-65
2024/01/11 11:35:30;;;;;;;13.90;5.60;;;;;;;-2.23;53.52;101413.91;10544839;27;20043;-65
2024/01/11 11:40:44;;;;;;;12.63;5.20;;;;;;;-2.13;52.73;101408.06;10541427;28;20434;-66
2024/01/11 11:45:48;;;;;;;9.90;5.28;;;;;;;-2.06;52.86;101407.28;10559249;28;20155;-66
2024/01/11 11:51:10;;;;;;;12.50;5.53;;;;;;;-1.94;52.63;101410.91;10558935;28;20051;-66
2024/01/11 11:56:14;;;;;;;10.68;5.65;;;;;;;-1.76;52.67;101400.88;10557100;28;20126;-66
2024/01/11 12:01:17;;;;;;;19.50;5.60;;;;;;;-1.57;52.23;101397.69;10560902;28;20039;-66
2024/01/11 12:06:23;;;;;;;13.32;5.30;;;;;;;-1.47;51.87;101400.41;10557511;28;20122;-66
2024/01/11 12:11:26;;;;;;;14.80;6.25;;;;;;;-1.43;50.72;101398.75;10562856;28;20054;-67
2024/01/11 12:16:28;;;;;;;13.52;4.80;;;;;;;-1.34;51.07;101386.88;10562298;28;20210;-68
2024/01/11 12:21:30;;;;;;;15.32;5.82;;;;;;;-1.25;51.36;101383.56;10544171;28;20047;-66
2024/01/11 12:26:32;;;;;;;13.05;5.55;;;;;;;-1.07;51.38;101386.34;10548347;27;20051;-65
2024/01/11 12:31:35;;;;;;;11.38;5.03;;;;;;;-0.99;51.34;101378.69;10566997;27;20445;-66
2024/01/11 12:36:38;;;;;;;15.30;5.10;;;;;;;-0.84;50.54;101376.28;10548440;27;20039;-66
2024/01/11 12:41:40;;;;;;;11.75;5.28;;;;;;;-0.72;49.87;101361.81;10548155;27;20131;-67
2024/01/11 12:46:42;;;;;;;10.45;5.35;;;;;;;-0.70;49.74;101357.59;10568889;27;20051;-66
2024/01/11 12:51:44;;;;;;;11.43;5.10;;;;;;;-0.60;50.28;101354.25;10530771;27;20057;-66
2024/01/11 12:56:46;;;;;;;11.77;5.13;;;;;;;-0.49;50.09;101344.03;10566156;27;20046;-66
2024/01/11 13:01:48;;;;;;;12.88;5.45;;;;;;;-0.34;49.79;101347.59;10547902;27;20583;-66
2024/01/11 13:06:50;;;;;;;11.63;5.47;;;;;;;-0.25;49.39;101336.53;10566288;27;20032;-68
2024/01/11 13:11:52;;;;;;;9.77;4.53;;;;;;;-0.19;49.02;101327.97;10565045;27;20601;-67
2024/01/11 13:16:54;;;;;;;11.90;5.38;;;;;;;-0.11;49.59;101327.19;10552892;27;20067;-66
2024/01/11 13:21:57;;;;;;;12.05;5.55;;;;;;;0.06;49.61;101338.41;10547176;28;20697;-67
2024/01/11 13:26:59;;;;;;;10.95;5.30;;;;;;;0.10;49.12;101342.69;10564095;27;20116;-67
2024/01/11 13:32:01;;;;;;;13.43;5.65;;;;;;;0.16;49.65;101344.47;10569479;27;20070;-67
2024/01/11 13:37:06;;;;;;;12.85;5.18;;;;;;;0.22;49.40;101353.03;10546832;27;20287;-67
2024/01/11 13:42:09;;;;;;;9.48;5.65;;;;;;;0.41;49.37;101352.28;10571439;27;20091;-66
2024/01/11 13:47:11;;;;;;;18.60;5.75;;;;;;;0.52;49.20;101357.47;10564923;27;20051;-66
2024/01/11 13:52:13;;;;;;;10.70;4.72;;;;;;;0.60;48.91;101358.38;10564588;27;20052;-66
2024/01/11 13:57:16;;;;;;;12.63;5.15;;;;;;;0.68;48.75;101348.94;10574241;27;20298;-66
2024/01/11 14:02:18;;;;;;;13.38;4.80;;;;;;;0.69;49.17;101339.53;10547397;27;20047;-66
2024/01/11 14:07:20;;;;;;;25.42;11.98;;;;;;;0.71;49.19;101336.06;10559760;27;20044;-65
2024/01/11 14:12:22;;;;;;;9.70;4.78;;;;;;;0.67;49.07;101333.50;10561682;27;20519;-66
2024/01/11 14:17:24;;;;;;;16.05;5.53;;;;;;;0.67;49.04;101329.19;10546390;27;20049;-66
2024/01/11 14:22:27;;;;;;;13.43;5.53;;;;;;;0.63;49.00;101317.16;10562716;27;20046;-65
2024/01/11 14:27:30;;;;;;;13.82;5.93;;;;;;;0.58;49.01;101311.16;10562215;27;20564;-65
2024/01/11 14:32:34;;;;;;;11.27;5.32;;;;;;;0.55;48.97;101316.28;10548027;27;20043;-66
2024/01/11 14:37:39;;;;;;;9.27;4.43;;;;;;;0.48;48.85;101310.25;10565636;27;20403;-65
2024/01/11 14:42:42;;;;;;;16.05;6.30;;;;;;;0.35;49.18;101311.09;10561330;27;20051;-66
2024/01/11 14:47:45;;;;;;;13.88;5.32;;;;;;;0.19;49.36;101311.88;10561566;28;20055;-66
2024/01/11 14:52:47;;;;;;;9.18;5.18;;;;;;;0.07;49.63;101305.81;10564093;27;20447;-66
2024/01/11 14:57:49;;;;;;;11.55;5.13;;;;;;;-0.09;49.98;101309.19;10544123;27;20050;-65
2024/01/11 15:02:55;;;;;;;14.23;5.07;;;;;;;-0.14;49.96;101322.00;10562833;27;20070;-65
2024/01/11 15:07:57;;;;;;;11.82;4.95;;;;;;;-0.11;49.90;101313.44;10561713;27;20051;-66
2024/01/11 15:12:59;;;;;;;13.20;5.30;;;;;;;-0.16;49.97;101312.56;10561014;27;20047;-65
2024/01/11 15:18:01;;;;;;;11.27;5.57;;;;;;;-0.38;50.22;101309.88;10560606;27;20054;-65
2024/01/11 15:23:04;;;;;;;14.57;5.53;;;;;;;-0.55;50.50;101308.00;10542478;27;20075;-65
2024/01/11 15:28:07;;;;;;;16.80;4.97;;;;;;;-0.69;50.71;101307.06;10560299;27;20101;-64
2024/01/11 15:33:09;;;;;;;12.52;5.63;;;;;;;-0.89;51.06;101306.03;10559764;28;20043;-65
2024/01/11 15:38:11;;;;;;;13.05;6.28;;;;;;;-1.15;51.69;101316.91;10560391;27;20052;-65
2024/01/11 15:43:13;;;;;;;13.30;5.90;;;;;;;-1.34;52.07;101332.13;10559010;28;20044;-66
2024/01/11 15:48:15;;;;;;;10.18;4.90;;;;;;;-1.36;52.00;101331.25;10567266;28;20040;-65
2024/01/11 15:53:18;;;;;;;11.90;5.03;;;;;;;-1.39;52.20;101344.06;10541816;28;20051;-65
2024/01/11 15:58:20;;;;;;;13.15;5.13;;;;;;;-1.51;52.40;101362.72;10579025;27;20051;-65
2024/01/11 16:03:23;;;;;;;11.15;6.13;;;;;;;-1.54;52.82;101374.66;10574227;27;20054;-65
2024/01/11 16:08:25;;;;;;;17.90;7.68;;;;;;;-1.54;52.76;101375.53;10569565;27;20131;-63
2024/01/11 16:13:27;;;;;;;13.20;5.40;;;;;;;-1.61;52.87;101375.41;10565742;27;20515;-65
2024/01/11 16:18:35;;;;;;;13.75;5.65;;;;;;;-1.76;53.32;101385.50;10573294;27;20075;-65
2024/01/11 16:23:37;;;;;;;10.85;4.78;;;;;;;-1.84;53.31;101387.09;10568148;27;20035;-64
2024/01/11 16:28:39;;;;;;;17.50;6.68;;;;;;;-1.95;53.48;101389.50;10585612;27;20046;-64
2024/01/11 16:33:41;;;;;;;14.13;5.82;;;;;;;-2.02;53.64;101377.44;10574056;27;20506;-64
2024/01/11 16:38:43;;;;;;;18.10;6.90;;;;;;;-2.05;53.89;101378.28;10571545;27;20058;-63
2024/01/11 16:43:46;;;;;;;11.98;5.68;;;;;;;-2.13;53.99;101384.13;10568224;27;20035;-64
2024/01/11 16:48:51;;;;;;;13.15;5.95;;;;;;;-2.21;54.24;101385.72;10569084;27;20039;-64
2024/01/11 16:54:04;;;;;;;12.73;6.15;;;;;;;-2.27;54.39;101394.19;10547821;27;20130;-64
2024/01/11 16:59:09;;;;;;;11.38;5.72;;;;;;;-2.28;54.48;101399.25;10565694;27;20048;-64
2024/01/11 17:04:15;;;;;;;12.73;5.68;;;;;;;-2.29;55.46;101398.44;10551449;27;20587;-64
2024/01/11 17:09:21;;;;;;;17.08;6.40;;;;;;;-2.13;54.32;101395.25;10564521;27;20041;-64
2024/01/11 17:14:34;;;;;;;10.38;5.90;;;;;;;-2.12;54.33;101390.97;10544490;27;20040;-64
2024/01/11 17:19:55;;;;;;;14.38;5.60;;;;;;;-2.22;54.60;101400.22;10557550;27;20047;-64
2024/01/11 17:25:28;;;;;;;11.10;5.45;;;;;;;-2.29;54.89;101403.53;10554039;27;20534;-65
2024/01/11 17:30:38;;;;;;;16.20;5.70;;;;;;;-2.35;54.93;101413.69;10549968;27;20054;-65
2024/01/11 17:35:48;;;;;;;17.02;6.70;;;;;;;-2.38;55.01;101417.88;10575184;27;20043;-65
2024/01/11 17:41:01;;;;;;;11.75;5.80;;;;;;;-2.30;54.90;101419.75;10547401;27;20531;-65
2024/01/11 17:46:14;;;;;;;14.10;5.45;;;;;;;-2.32;54.75;101426.53;10546157;27;20048;-64
2024/01/11 17:51:33;;;;;;;15.45;5.95;;;;;;;-2.39;54.97;101422.19;10563164;27;20048;-65
2024/01/11 17:56:43;;;;;;;14.10;6.35;;;;;;;-2.39;55.30;101416.19;10513650;27;20035;-64
2024/01/11 18:02:04;;;;;;;13.10;6.37;;;;;;;-2.41;55.07;101417.84;10549419;27;20047;-64
2024/01/11 18:07:16;;;;;;;17.33;6.97;;;;;;;-2.54;55.98;101414.22;10551846;27;20052;-64
2024/01/11 18:12:27;;;;;;;14.95;7.85;;;;;;;-2.49;55.42;101402.34;10571854;27;20141;-65
2024/01/11 18:17:33;;;;;;;15.20;7.15;;;;;;;-2.47;55.64;101392.97;10542725;27;20141;-64
2024/01/11 18:22:41;;;;;;;23.25;7.72;;;;;;;-2.50;55.66;101405.75;10509894;28;20052;-64
2024/01/11 18:27:46;;;;;;;20.83;7.63;;;;;;;-2.49;55.71;101407.47;10506750;27;20567;-64
2024/01/11 18:32:50;;;;;;;17.58;8.05;;;;;;;-2.47;56.05;101418.59;10545798;27;20051;-64
2024/01/11 18:37:54;;;;;;;16.13;7.75;;;;;;;-2.42;55.95;101411.88;10524255;27;20063;-64
2024/01/11 18:42:56;;;;;;;23.00;9.23;;;;;;;-2.38;55.86;101412.78;10538016;27;20040;-62
2024/01/11 18:47:59;;;;;;;22.85;7.80;;;;;;;-2.38;55.67;101421.31;10524247;28;20047;-63
2024/01/11 18:53:02;;;;;;;20.25;7.55;;;;;;;-2.45;55.73;101432.28;10523176;28;20054;-64
2024/01/11 18:58:04;;;;;;;19.65;8.45;;;;;;;-2.47;55.84;101425.44;10523619;28;20048;-64
2024/01/11 19:03:08;;;;;;;13.65;6.93;;;;;;;-2.55;55.91;101424.47;10502485;28;20044;-64
2024/01/11 19:08:10;;;;;;;18.55;7.20;;;;;;;-2.64;56.05;101440.53;10516025;28;20723;-64
2024/01/11 19:13:12;;;;;;;18.98;6.78;;;;;;;-2.73;56.23;101440.34;10519282;28;20135;-64
2024/01/11 19:18:15;;;;;;;18.85;8.85;;;;;;;-2.78;56.27;101439.41;10520444;28;20380;-64
2024/01/11 19:23:17;;;;;;;14.73;7.15;;;;;;;-2.81;56.38;101457.25;10500935;28;20044;-64
2024/01/11 19:28:19;;;;;;;17.05;7.43;;;;;;;-2.85;56.49;101463.16;10517628;28;20051;-66
2024/01/11 19:33:21;;;;;;;14.15;6.65;;;;;;;-2.90;56.42;101454.56;10515455;28;20050;-63
2024/01/11 19:38:24;;;;;;;15.77;7.93;;;;;;;-2.94;56.45;101466.41;10512985;27;20044;-65
2024/01/11 19:43:33;;;;;;;17.95;7.70;;;;;;;-2.96;56.57;101475.75;10498249;28;20052;-65
2024/01/11 19:48:35;;;;;;;25.13;9.10;;;;;;;-2.97;56.50;101476.59;10514632;28;20055;-65
2024/01/11 19:53:40;;;;;;;17.77;7.90;;;;;;;-2.99;56.66;101469.72;10497048;28;20393;-65
2024/01/11 19:58:48;;;;;;;17.30;7.90;;;;;;;-3.05;56.61;101473.03;10517385;28;20051;-65
2024/01/11 20:03:50;;;;;;;19.63;7.00;;;;;;;-3.10;56.75;101496.81;10517077;28;20320;-64
2024/01/11 20:08:52;;;;;;;17.52;7.30;;;;;;;-3.19;56.77;101489.81;10497910;28;20388;-64
2024/01/11 20:13:55;;;;;;;15.70;7.13;;;;;;;-3.24;57.02;101485.44;10521206;28;20056;-65
2024/01/11 20:18:57;;;;;;;18.73;7.95;;;;;;;-3.23;56.88;101484.59;10515317;28;20127;-64
2024/01/11 20:23:59;;;;;;;16.05;6.75;;;;;;;-3.29;57.19;101481.91;10478983;28;20163;-65
2024/01/11 20:29:01;;;;;;;20.08;8.55;;;;;;;-3.30;57.10;101482.72;10521870;28;20044;-65
2024/01/11 20:34:05;;;;;;;18.48;7.90;;;;;;;-3.29;57.14;101479.34;10515248;28;20408;-64
2024/01/11 20:39:08;;;;;;;22.33;8.75;;;;;;;-3.31;57.04;101483.56;10519499;28;20052;-65
2024/01/11 20:44:11;;;;;;;14.75;7.00;;;;;;;-3.31;57.17;101486.13;10530745;28;20047;-65
2024/01/11 20:49:13;;;;;;;23.65;8.55;;;;;;;-3.34;57.07;101483.47;10539647;28;20499;-64
2024/01/11 20:54:16;;;;;;;14.73;7.20;;;;;;;-3.36;57.12;101491.13;10541116;28;20143;-64
2024/01/11 20:59:18;;;;;;;19.50;6.88;;;;;;;-3.32;57.01;101500.59;10538320;28;20411;-64
2024/01/11 21:04:20;;;;;;;19.33;7.75;;;;;;;-3.36;56.84;101505.59;10516613;28;20400;-64
2024/01/11 21:09:22;;;;;;;16.08;7.82;;;;;;;-3.41;56.94;101507.22;10551587;27;20048;-65
2024/01/11 21:14:24;;;;;;;21.77;7.90;;;;;;;-3.46;57.19;101514.78;10534586;28;20075;-64
2024/01/11 21:19:26;;;;;;;18.38;8.13;;;;;;;-3.51;57.42;101507.84;10539212;28;20040;-65
2024/01/11 21:24:29;;;;;;;20.45;7.80;;;;;;;-3.49;57.26;101518.97;10534355;28;20173;-64
2024/01/11 21:29:31;;;;;;;24.77;8.73;;;;;;;-3.47;57.23;101517.31;10529462;28;20031;-64
2024/01/11 21:34:33;;;;;;;15.35;7.60;;;;;;;-3.46;57.27;101519.91;10534835;28;20035;-64
2024/01/11 21:39:35;;;;;;;22.67;7.50;;;;;;;-3.38;56.80;101537.97;10535161;28;20039;-64
2024/01/11 21:44:37;;;;;;;14.95;6.47;;;;;;;-3.48;56.87;101538.59;10528366;28;20062;-64
2024/01/11 21:49:39;;;;;;;16.63;8.13;;;;;;;-3.53;56.99;101543.63;10537276;28;20280;-64
2024/01/11 21:54:42;;;;;;;18.58;7.63;;;;;;;-3.62;57.08;101547.66;10516053;28;20071;-64
2024/01/11 21:59:44;;;;;;;18.42;7.93;;;;;;;-3.71;57.27;101548.31;10531564;28;20039;-65
2024/01/11 22:04:47;;;;;;;18.25;8.00;;;;;;;-3.78;57.60;101538.75;10533209;28;20044;-64
2024/01/11 22:09:49;;;;;;;20.25;7.47;;;;;;;-3.82;57.65;101540.41;10531787;28;20081;-64
2024/01/11 22:14:52;;;;;;;19.40;7.50;;;;;;;-3.86;57.92;101538.59;10533856;28;20495;-64
2024/01/11 22:19:55;;;;;;;14.93;6.28;;;;;;;-3.92;58.00;101537.56;10518254;28;20290;-65
2024/01/11 22:24:57;;;;;;;18.38;8.02;;;;;;;-3.97;58.06;101528.91;10529672;28;20235;-65
2024/01/11 22:29:59;;;;;;;18.63;7.38;;;;;;;-4.00;58.29;101527.19;10529170;28;20047;-65
2024/01/11 22:35:03;;;;;;;19.77;7.75;;;;;;;-4.06;58.29;101536.38;10534213;28;20789;-65
2024/01/11 22:40:06;;;;;;;17.02;7.25;;;;;;;-4.14;58.71;101525.09;10535688;28;20067;-64
2024/01/11 22:45:08;;;;;;;20.58;7.30;;;;;;;-4.18;58.61;101539.47;10524895;28;20140;-63
2024/01/11 22:50:10;;;;;;;17.95;8.23;;;;;;;-4.23;58.83;101535.09;10520830;28;20369;-63
2024/01/11 22:55:12;;;;;;;21.30;8.50;;;;;;;-4.27;58.65;101531.59;10516975;28;20415;-64
2024/01/11 23:00:20;;;;;;;23.08;8.90;;;;;;;-4.33;58.87;101543.34;10523041;28;20119;-64